Super Servant 4 — PJPO — position and weather

sailwx.info

Track history (hours):
 
Tides and Currents Weather Stations Pressure Air Temp Water Temp Dewpoint Dewpoint Depression Visibility Wind Speed Wind Dir Waves Ship Positions

Super Servant 4

Last reported at 2016-Feb-05 00:18 UTC. Time now 2016-Feb-08 14:28 UTC.
Position N 41°60' W 009°07'.

Length 139 m; beam 32 m.

Type: Cargo ship. MMSI: 306157000.

Date/timePositionNaut miles runAvg speedWind from/ knotsBaromVisibWave heightAir tempDewpointWater temp
2016-Feb-05 00:18N 41°60' W 009°07'811.1
2016-Feb-04 23:33N 41°53' W 009°13'1312.6
2016-Feb-04 22:33N 41°42' W 009°23'1212.1
2016-Feb-04 21:33N 41°33' W 009°32'1211.8
2016-Feb-04 20:33N 41°23' W 009°41'1110.9
2016-Feb-04 19:33N 41°13' W 009°48'1111.5
2016-Feb-04 18:33N 41°02' W 009°49'1312.4
2016-Feb-04 17:30N 40°49' W 009°49'1111.3
2016-Feb-04 16:33N 40°38' W 009°49'1211.8
2016-Feb-04 15:33N 40°26' W 009°49'1211.9
2016-Feb-04 14:33N 40°14' W 009°48'1211.5
2016-Feb-04 13:33N 40°03' W 009°48'1610.9
2016-Feb-04 12:06N 39°47' W 009°50'711.3
2016-Feb-04 11:30N 39°40' W 009°50'1010.3
2016-Feb-04 10:33N 39°31' W 009°51'1110.9
2016-Feb-04 09:33N 39°20' W 009°51'1110.9
2016-Feb-04 08:33N 39°09' W 009°51'1110.6
2016-Feb-04 07:33N 38°58' W 009°51'1110.6
2016-Feb-04 06:33N 38°48' W 009°51'1010.4
2016-Feb-04 05:33N 38°37' W 009°50'1110.6
2016-Feb-04 04:33N 38°27' W 009°47'1010.4
2016-Feb-04 03:33N 38°17' W 009°44'1110.4
2016-Feb-04 02:32N 38°07' W 009°41'1010.5
2016-Feb-04 01:33N 37°56' W 009°38'1110.4
2016-Feb-04 00:33N 37°46' W 009°35'1010.2
2016-Feb-03 23:33N 37°36' W 009°32'1010.4
2016-Feb-03 22:33N 37°26' W 009°29'1111.1
2016-Feb-03 21:33N 37°15' W 009°26'1110.7
2016-Feb-03 20:33N 37°05' W 009°23'1111.1
2016-Feb-03 19:33N 36°54' W 009°20'1111.1
2016-Feb-03 18:33N 36°46' W 009°11'1110.2
2016-Feb-03 17:30N 36°42' W 008°58'1111.6
2016-Feb-03 16:33N 36°39' W 008°45'1313.0
2016-Feb-03 15:34N 36°34' W 008°30'1211.8
2016-Feb-03 14:30N 36°30' W 008°15'3711.7
2016-Feb-03 11:20N 36°19' W 007°31'2512.0
2016-Feb-03 09:16N 36°11' W 007°02'5811.8
2016-Feb-03 04:17N 35°58' W 005°52'911.5
2016-Feb-03 03:33N 35°58' W 005°41'10 9.8
2016-Feb-03 02:33N 35°59' W 005°29'9 9.5
2016-Feb-03 01:33N 36°02' W 005°18'1110.5
2016-Feb-03 00:32N 36°03' W 005°05'18911.8
2016-Feb-02 08:29N 36°55' W 001°19'1212.5
2016-Feb-02 07:33N 37°01' W 001°07'1212.1
2016-Feb-02 06:33N 37°08' W 000°54'1312.7
2016-Feb-02 05:33N 37°15' W 000°41'1212.4
2016-Feb-02 04:33N 37°23' W 000°28'1312.7
2016-Feb-02 03:33N 37°33' W 000°19'1212.3
2016-Feb-02 02:33N 37°43' W 000°10'1212.3
2016-Feb-02 01:33N 37°53' W 000°01'1212.1
2016-Feb-02 00:33N 38°03' E 000°08'1212.2
2016-Feb-01 23:33N 38°12' E 000°17'1211.9
2016-Feb-01 22:33N 38°22' E 000°26'1211.8
2016-Feb-01 21:33N 38°32' E 000°35'1211.9
2016-Feb-01 20:33N 38°41' E 000°44'1212.2
2016-Feb-01 19:33N 38°51' E 000°53'3712.3
2016-Feb-01 16:29N 39°22' E 001°21'2912.0
2016-Feb-01 14:06N 39°45' E 001°43'712.2
2016-Feb-01 13:33N 39°50' E 001°49'1312.5
2016-Feb-01 12:33N 40°00' E 001°59'1212.1
2016-Feb-01 11:33N 40°10' E 002°08'1212.1
2016-Feb-01 10:33N 40°19' E 002°18'1212.2
2016-Feb-01 09:33N 40°29' E 002°28'1212.1
2016-Feb-01 08:33N 40°38' E 002°39'1212.3
2016-Feb-01 07:33N 40°45' E 002°52'1212.4
2016-Feb-01 06:33N 40°53' E 003°05'1312.6
2016-Feb-01 05:33N 41°00' E 003°18'1312.5
2016-Feb-01 04:33N 41°08' E 003°31'1312.6
2016-Feb-01 03:33N 41°16' E 003°44'9011.0
2016-Jan-31 19:26N 42°39' E 004°30'9 9.7
2016-Jan-31 18:33N 42°46' E 004°37'1010.4
2016-Jan-31 17:33N 42°54' E 004°45'1110.7
2016-Jan-31 16:33N 43°03' E 004°53'1111.4
2016-Jan-31 15:33N 43°14' E 005°00'1111.0
2016-Jan-31 14:33N 43°24' E 004°55'2 1.8
2016-Jan-31 13:31N 43°25' E 004°53'0 0.0
2016-Jan-31 12:31N 43°25' E 004°53'0 0.0
2016-Jan-31 11:31N 43°25' E 004°53'0 0.0
2016-Jan-31 10:34N 43°25' E 004°53'0 0.0
2016-Jan-31 09:31N 43°25' E 004°53'0 0.0
2016-Jan-31 08:28N 43°25' E 004°53'0 0.0
2016-Jan-31 07:31N 43°25' E 004°53'0 0.0
2016-Jan-31 06:31N 43°25' E 004°53'0 0.0
2016-Jan-31 05:31N 43°25' E 004°53'0 0.0
2016-Jan-31 04:31N 43°25' E 004°53'0 0.0
2016-Jan-31 03:34N 43°25' E 004°53'0 0.0
2016-Jan-31 02:31N 43°25' E 004°53'0 0.0
2016-Jan-31 01:34N 43°25' E 004°53'0 0.0
2016-Jan-31 00:31N 43°25' E 004°53'0 0.0
2016-Jan-30 23:33N 43°25' E 004°53'0 0.0
2016-Jan-30 22:33N 43°25' E 004°53'0 0.0
2016-Jan-30 21:33N 43°25' E 004°53'0 0.0
2016-Jan-30 20:33N 43°25' E 004°53'0 0.0
2016-Jan-30 19:33N 43°25' E 004°53'0 0.0
2016-Jan-30 18:33N 43°25' E 004°53'0 0.0
2016-Jan-30 17:33N 43°25' E 004°53'0 0.0
2016-Jan-30 16:33N 43°25' E 004°53'0 0.0
2016-Jan-30 15:33N 43°25' E 004°53'0 0.0
2016-Jan-30 14:33N 43°25' E 004°53'0 0.0
2016-Jan-30 13:33N 43°25' E 004°53'0 0.0
2016-Jan-30 12:33N 43°25' E 004°53'0 0.0
2016-Jan-30 11:33N 43°25' E 004°53'0 0.0
2016-Jan-30 10:33N 43°25' E 004°53'0 0.0
2016-Jan-30 09:33N 43°25' E 004°53'0 0.0
2016-Jan-30 08:33N 43°25' E 004°53'0 0.0
2016-Jan-30 07:33N 43°25' E 004°53'6 5.6
2016-Jan-30 06:33N 43°21' E 004°58'7 7.3
2016-Jan-30 05:33N 43°14' E 005°02'10 9.6
2016-Jan-30 04:33N 43°05' E 005°02'8 8.0
2016-Jan-30 03:33N 42°57' E 004°58'1 1.0
2016-Jan-30 02:33N 42°57' E 004°57'1111.2
2016-Jan-30 01:33N 42°46' E 004°53'1111.2
2016-Jan-30 00:33N 42°35' E 004°47'9 8.8
2016-Jan-29 23:33N 42°31' E 004°57'9 9.3
2016-Jan-29 22:33N 42°22' E 005°00'1010.5
2016-Jan-29 21:33N 42°18' E 004°48'1111.6
2016-Jan-29 20:33N 42°14' E 004°33'9810.9
2016-Jan-29 11:34N 41°04' E 003°00'1111.2
2016-Jan-29 10:33N 40°55' E 002°51'1111.3
2016-Jan-29 09:33N 40°46' E 002°42'1111.5
2016-Jan-29 08:33N 40°37' E 002°33'1211.6
2016-Jan-29 07:33N 40°27' E 002°25'1212.4
2016-Jan-29 06:33N 40°17' E 002°15'1212.3
2016-Jan-29 05:33N 40°08' E 002°05'1312.6
2016-Jan-29 04:33N 39°57' E 001°56'1313.2
2016-Jan-29 03:33N 39°46' E 001°46'1413.6
2016-Jan-29 02:33N 39°36' E 001°35'1313.1
2016-Jan-29 01:33N 39°25' E 001°25'1312.8
2016-Jan-29 00:33N 39°14' E 001°15'6512.6
2016-Jan-28 19:23N 38°22' E 000°27'1113.0
2016-Jan-28 18:33N 38°13' E 000°18'1312.6
2016-Jan-28 17:33N 38°03' E 000°08'2612.6
2016-Jan-28 15:29N 37°42' W 000°11'1212.4
2016-Jan-28 14:33N 37°33' W 000°19'1212.3
2016-Jan-28 13:33N 37°23' W 000°29'1312.6
2016-Jan-28 12:33N 37°15' W 000°41'1212.5
2016-Jan-28 11:33N 37°07' W 000°53'1212.4
2016-Jan-28 10:33N 37°00' W 001°06'6812.7
2016-Jan-28 05:11N 36°21' W 002°16'1013.7
2016-Jan-28 04:26N 36°20' W 002°28'1213.3
2016-Jan-28 03:32N 36°18' W 002°43'1312.6
2016-Jan-28 02:32N 36°16' W 002°58'10713.4
2016-Jan-27 18:32N 35°60' W 005°10'14012.7
2016-Jan-27 07:28N 36°17' W 008°02'1313.0
2016-Jan-27 06:28N 36°21' W 008°17'1212.5
2016-Jan-27 05:31N 36°24' W 008°32'1313.0
2016-Jan-27 04:31N 36°28' W 008°47'1312.4
2016-Jan-27 03:28N 36°31' W 009°03'1313.0
2016-Jan-27 02:28N 36°35' W 009°18'1212.2
2016-Jan-27 01:31N 36°44' W 009°28'1312.7
2016-Jan-27 00:31N 36°55' W 009°36'1313.0
2016-Jan-26 23:31N 37°07' W 009°42'1312.4
2016-Jan-26 22:28N 37°19' W 009°47'1212.4
2016-Jan-26 21:31N 37°31' W 009°52'1312.9
2016-Jan-26 20:31N 37°43' W 009°57'1711.9
2016-Jan-26 19:06N 37°59' W 010°04'913.8
2016-Jan-26 18:28N 38°07' W 010°08'1111.5
2016-Jan-26 17:31N 38°17' W 010°13'1312.6
2016-Jan-26 16:28N 38°30' W 010°18'1011.0
2016-Jan-26 15:33N 38°39' W 010°23'1412.8
2016-Jan-26 14:25N 38°53' W 010°28'910.4
2016-Jan-26 13:32N 39°02' W 010°31'1312.4
2016-Jan-26 12:28N 39°15' W 010°34'1111.3
2016-Jan-26 11:31N 39°26' W 010°37'2511.9
2016-Jan-26 09:25N 39°50' W 010°43'5611.4
2016-Jan-26 04:28N 40°46' W 010°34'2411.5
2016-Jan-26 02:22N 41°10' W 010°27'  
Track history (hours):
 
Tides and Currents Weather Stations Pressure Air Temp Water Temp Dewpoint Dewpoint Depression Visibility Wind Speed Wind Dir Waves Ship Positions

Super Servant 4

Last reported at 2016-Feb-05 00:18 UTC. Time now 2016-Feb-08 14:28 UTC.
Position N 41°60' W 009°07'.

Length 139 m; beam 32 m.

Type: Cargo ship. MMSI: 306157000.

Date/timePositionNaut miles runAvg speedWind from/ knotsBaromVisibWave heightAir tempDewpointWater temp
2016-Feb-05 00:18N 41°60' W 009°07'811.1
2016-Feb-04 23:33N 41°53' W 009°13'1312.6
2016-Feb-04 22:33N 41°42' W 009°23'1212.1
2016-Feb-04 21:33N 41°33' W 009°32'1211.8
2016-Feb-04 20:33N 41°23' W 009°41'1110.9
2016-Feb-04 19:33N 41°13' W 009°48'1111.5
2016-Feb-04 18:33N 41°02' W 009°49'1312.4
2016-Feb-04 17:30N 40°49' W 009°49'1111.3
2016-Feb-04 16:33N 40°38' W 009°49'1211.8
2016-Feb-04 15:33N 40°26' W 009°49'1211.9
2016-Feb-04 14:33N 40°14' W 009°48'1211.5
2016-Feb-04 13:33N 40°03' W 009°48'1610.9
2016-Feb-04 12:06N 39°47' W 009°50'711.3
2016-Feb-04 11:30N 39°40' W 009°50'1010.3
2016-Feb-04 10:33N 39°31' W 009°51'1110.9
2016-Feb-04 09:33N 39°20' W 009°51'1110.9
2016-Feb-04 08:33N 39°09' W 009°51'1110.6
2016-Feb-04 07:33N 38°58' W 009°51'1110.6
2016-Feb-04 06:33N 38°48' W 009°51'1010.4
2016-Feb-04 05:33N 38°37' W 009°50'1110.6
2016-Feb-04 04:33N 38°27' W 009°47'1010.4
2016-Feb-04 03:33N 38°17' W 009°44'1110.4
2016-Feb-04 02:32N 38°07' W 009°41'1010.5
2016-Feb-04 01:33N 37°56' W 009°38'1110.4
2016-Feb-04 00:33N 37°46' W 009°35'1010.2
2016-Feb-03 23:33N 37°36' W 009°32'1010.4
2016-Feb-03 22:33N 37°26' W 009°29'1111.1
2016-Feb-03 21:33N 37°15' W 009°26'1110.7
2016-Feb-03 20:33N 37°05' W 009°23'1111.1
2016-Feb-03 19:33N 36°54' W 009°20'1111.1
2016-Feb-03 18:33N 36°46' W 009°11'1110.2
2016-Feb-03 17:30N 36°42' W 008°58'1111.6
2016-Feb-03 16:33N 36°39' W 008°45'1313.0
2016-Feb-03 15:34N 36°34' W 008°30'1211.8
2016-Feb-03 14:30N 36°30' W 008°15'3711.7
2016-Feb-03 11:20N 36°19' W 007°31'2512.0
2016-Feb-03 09:16N 36°11' W 007°02'5811.8
2016-Feb-03 04:17N 35°58' W 005°52'911.5
2016-Feb-03 03:33N 35°58' W 005°41'10 9.8
2016-Feb-03 02:33N 35°59' W 005°29'9 9.5
2016-Feb-03 01:33N 36°02' W 005°18'1110.5
2016-Feb-03 00:32N 36°03' W 005°05'18911.8
2016-Feb-02 08:29N 36°55' W 001°19'1212.5
2016-Feb-02 07:33N 37°01' W 001°07'1212.1
2016-Feb-02 06:33N 37°08' W 000°54'1312.7
2016-Feb-02 05:33N 37°15' W 000°41'1212.4
2016-Feb-02 04:33N 37°23' W 000°28'1312.7
2016-Feb-02 03:33N 37°33' W 000°19'1212.3
2016-Feb-02 02:33N 37°43' W 000°10'1212.3
2016-Feb-02 01:33N 37°53' W 000°01'1212.1
2016-Feb-02 00:33N 38°03' E 000°08'1212.2
2016-Feb-01 23:33N 38°12' E 000°17'1211.9
2016-Feb-01 22:33N 38°22' E 000°26'1211.8
2016-Feb-01 21:33N 38°32' E 000°35'1211.9
2016-Feb-01 20:33N 38°41' E 000°44'1212.2
2016-Feb-01 19:33N 38°51' E 000°53'3712.3
2016-Feb-01 16:29N 39°22' E 001°21'2912.0
2016-Feb-01 14:06N 39°45' E 001°43'712.2
2016-Feb-01 13:33N 39°50' E 001°49'1312.5
2016-Feb-01 12:33N 40°00' E 001°59'1212.1
2016-Feb-01 11:33N 40°10' E 002°08'1212.1
2016-Feb-01 10:33N 40°19' E 002°18'1212.2
2016-Feb-01 09:33N 40°29' E 002°28'1212.1
2016-Feb-01 08:33N 40°38' E 002°39'1212.3
2016-Feb-01 07:33N 40°45' E 002°52'1212.4
2016-Feb-01 06:33N 40°53' E 003°05'1312.6
2016-Feb-01 05:33N 41°00' E 003°18'1312.5
2016-Feb-01 04:33N 41°08' E 003°31'1312.6
2016-Feb-01 03:33N 41°16' E 003°44'9011.0
2016-Jan-31 19:26N 42°39' E 004°30'9 9.7
2016-Jan-31 18:33N 42°46' E 004°37'1010.4
2016-Jan-31 17:33N 42°54' E 004°45'1110.7
2016-Jan-31 16:33N 43°03' E 004°53'1111.4
2016-Jan-31 15:33N 43°14' E 005°00'1111.0
2016-Jan-31 14:33N 43°24' E 004°55'2 1.8
2016-Jan-31 13:31N 43°25' E 004°53'0 0.0
2016-Jan-31 12:31N 43°25' E 004°53'0 0.0
2016-Jan-31 11:31N 43°25' E 004°53'0 0.0
2016-Jan-31 10:34N 43°25' E 004°53'0 0.0
2016-Jan-31 09:31N 43°25' E 004°53'0 0.0
2016-Jan-31 08:28N 43°25' E 004°53'0 0.0
2016-Jan-31 07:31N 43°25' E 004°53'0 0.0
2016-Jan-31 06:31N 43°25' E 004°53'0 0.0
2016-Jan-31 05:31N 43°25' E 004°53'0 0.0
2016-Jan-31 04:31N 43°25' E 004°53'0 0.0
2016-Jan-31 03:34N 43°25' E 004°53'0 0.0
2016-Jan-31 02:31N 43°25' E 004°53'0 0.0
2016-Jan-31 01:34N 43°25' E 004°53'0 0.0
2016-Jan-31 00:31N 43°25' E 004°53'0 0.0
2016-Jan-30 23:33N 43°25' E 004°53'0 0.0
2016-Jan-30 22:33N 43°25' E 004°53'0 0.0
2016-Jan-30 21:33N 43°25' E 004°53'0 0.0
2016-Jan-30 20:33N 43°25' E 004°53'0 0.0
2016-Jan-30 19:33N 43°25' E 004°53'0 0.0
2016-Jan-30 18:33N 43°25' E 004°53'0 0.0
2016-Jan-30 17:33N 43°25' E 004°53'0 0.0
2016-Jan-30 16:33N 43°25' E 004°53'0 0.0
2016-Jan-30 15:33N 43°25' E 004°53'0 0.0
2016-Jan-30 14:33N 43°25' E 004°53'0 0.0
2016-Jan-30 13:33N 43°25' E 004°53'0 0.0
2016-Jan-30 12:33N 43°25' E 004°53'0 0.0
2016-Jan-30 11:33N 43°25' E 004°53'0 0.0
2016-Jan-30 10:33N 43°25' E 004°53'0 0.0
2016-Jan-30 09:33N 43°25' E 004°53'0 0.0
2016-Jan-30 08:33N 43°25' E 004°53'0 0.0
2016-Jan-30 07:33N 43°25' E 004°53'6 5.6
2016-Jan-30 06:33N 43°21' E 004°58'7 7.3
2016-Jan-30 05:33N 43°14' E 005°02'10 9.6
2016-Jan-30 04:33N 43°05' E 005°02'8 8.0
2016-Jan-30 03:33N 42°57' E 004°58'1 1.0
2016-Jan-30 02:33N 42°57' E 004°57'1111.2
2016-Jan-30 01:33N 42°46' E 004°53'1111.2
2016-Jan-30 00:33N 42°35' E 004°47'9 8.8
2016-Jan-29 23:33N 42°31' E 004°57'9 9.3
2016-Jan-29 22:33N 42°22' E 005°00'1010.5
2016-Jan-29 21:33N 42°18' E 004°48'1111.6
2016-Jan-29 20:33N 42°14' E 004°33'9810.9
2016-Jan-29 11:34N 41°04' E 003°00'1111.2
2016-Jan-29 10:33N 40°55' E 002°51'1111.3
2016-Jan-29 09:33N 40°46' E 002°42'1111.5
2016-Jan-29 08:33N 40°37' E 002°33'1211.6
2016-Jan-29 07:33N 40°27' E 002°25'1212.4
2016-Jan-29 06:33N 40°17' E 002°15'1212.3
2016-Jan-29 05:33N 40°08' E 002°05'1312.6
2016-Jan-29 04:33N 39°57' E 001°56'1313.2
2016-Jan-29 03:33N 39°46' E 001°46'1413.6
2016-Jan-29 02:33N 39°36' E 001°35'1313.1
2016-Jan-29 01:33N 39°25' E 001°25'1312.8
2016-Jan-29 00:33N 39°14' E 001°15'6512.6
2016-Jan-28 19:23N 38°22' E 000°27'1113.0
2016-Jan-28 18:33N 38°13' E 000°18'1312.6
2016-Jan-28 17:33N 38°03' E 000°08'2612.6
2016-Jan-28 15:29N 37°42' W 000°11'1212.4
2016-Jan-28 14:33N 37°33' W 000°19'1212.3
2016-Jan-28 13:33N 37°23' W 000°29'1312.6
2016-Jan-28 12:33N 37°15' W 000°41'1212.5
2016-Jan-28 11:33N 37°07' W 000°53'1212.4
2016-Jan-28 10:33N 37°00' W 001°06'6812.7
2016-Jan-28 05:11N 36°21' W 002°16'1013.7
2016-Jan-28 04:26N 36°20' W 002°28'1213.3
2016-Jan-28 03:32N 36°18' W 002°43'1312.6
2016-Jan-28 02:32N 36°16' W 002°58'10713.4
2016-Jan-27 18:32N 35°60' W 005°10'14012.7
2016-Jan-27 07:28N 36°17' W 008°02'1313.0
2016-Jan-27 06:28N 36°21' W 008°17'1212.5
2016-Jan-27 05:31N 36°24' W 008°32'1313.0
2016-Jan-27 04:31N 36°28' W 008°47'1312.4
2016-Jan-27 03:28N 36°31' W 009°03'1313.0
2016-Jan-27 02:28N 36°35' W 009°18'1212.2
2016-Jan-27 01:31N 36°44' W 009°28'1312.7
2016-Jan-27 00:31N 36°55' W 009°36'1313.0
2016-Jan-26 23:31N 37°07' W 009°42'1312.4
2016-Jan-26 22:28N 37°19' W 009°47'1212.4
2016-Jan-26 21:31N 37°31' W 009°52'1312.9
2016-Jan-26 20:31N 37°43' W 009°57'1711.9
2016-Jan-26 19:06N 37°59' W 010°04'913.8
2016-Jan-26 18:28N 38°07' W 010°08'1111.5
2016-Jan-26 17:31N 38°17' W 010°13'1312.6
2016-Jan-26 16:28N 38°30' W 010°18'1011.0
2016-Jan-26 15:33N 38°39' W 010°23'1412.8
2016-Jan-26 14:25N 38°53' W 010°28'910.4
2016-Jan-26 13:32N 39°02' W 010°31'1312.4
2016-Jan-26 12:28N 39°15' W 010°34'1111.3
2016-Jan-26 11:31N 39°26' W 010°37'2511.9
2016-Jan-26 09:25N 39°50' W 010°43'5611.4
2016-Jan-26 04:28N 40°46' W 010°34'2411.5
2016-Jan-26 02:22N 41°10' W 010°27'  

Dump ship's entire track history